sensor_id;sensor_type;location;lat;lon;timestamp;P1;durP1;ratioP1;P2;durP2;ratioP2
66189;SDS011;52992;52.084;5.412;2023-01-28T00:00:52;7.97;;;5.33;;
66189;SDS011;52992;52.084;5.412;2023-01-28T00:03:19;9.07;;;5.77;;
66189;SDS011;52992;52.084;5.412;2023-01-28T00:05:46;10.07;;;6.17;;
66189;SDS011;52992;52.084;5.412;2023-01-28T00:08:12;11.67;;;6.10;;
66189;SDS011;52992;52.084;5.412;2023-01-28T00:10:40;8.97;;;5.20;;
66189;SDS011;52992;52.084;5.412;2023-01-28T00:13:11;10.90;;;6.17;;
66189;SDS011;52992;52.084;5.412;2023-01-28T00:15:41;11.90;;;6.27;;
66189;SDS011;52992;52.084;5.412;2023-01-28T00:18:07;9.50;;;5.83;;
66189;SDS011;52992;52.084;5.412;2023-01-28T00:20:34;7.80;;;5.07;;
66189;SDS011;52992;52.084;5.412;2023-01-28T00:23:02;11.63;;;6.47;;
66189;SDS011;52992;52.084;5.412;2023-01-28T00:25:29;10.27;;;5.67;;
66189;SDS011;52992;52.084;5.412;2023-01-28T00:27:56;9.63;;;5.90;;
66189;SDS011;52992;52.084;5.412;2023-01-28T00:30:23;10.53;;;6.33;;
66189;SDS011;52992;52.084;5.412;2023-01-28T00:32:50;10.00;;;5.70;;
66189;SDS011;52992;52.084;5.412;2023-01-28T00:35:18;10.47;;;6.27;;
66189;SDS011;52992;52.084;5.412;2023-01-28T00:37:45;9.87;;;5.77;;
66189;SDS011;52992;52.084;5.412;2023-01-28T00:40:12;9.47;;;5.53;;
66189;SDS011;52992;52.084;5.412;2023-01-28T00:42:39;9.10;;;6.07;;
66189;SDS011;52992;52.084;5.412;2023-01-28T00:45:06;10.90;;;6.33;;
66189;SDS011;52992;52.084;5.412;2023-01-28T00:47:33;10.50;;;6.10;;
66189;SDS011;52992;52.084;5.412;2023-01-28T00:50:01;9.87;;;6.50;;
66189;SDS011;52992;52.084;5.412;2023-01-28T00:52:29;10.50;;;6.47;;
66189;SDS011;52992;52.084;5.412;2023-01-28T00:54:56;12.07;;;6.27;;
66189;SDS011;52992;52.084;5.412;2023-01-28T00:57:24;11.87;;;6.43;;
66189;SDS011;52992;52.084;5.412;2023-01-28T00:59:51;9.90;;;6.50;;
66189;SDS011;52992;52.084;5.412;2023-01-28T01:02:20;10.30;;;6.27;;
66189;SDS011;52992;52.084;5.412;2023-01-28T01:04:47;8.93;;;5.63;;
66189;SDS011;52992;52.084;5.412;2023-01-28T01:07:27;8.47;;;6.10;;
66189;SDS011;52992;52.084;5.412;2023-01-28T01:10:10;10.20;;;6.43;;
66189;SDS011;52992;52.084;5.412;2023-01-28T01:12:39;9.20;;;6.03;;
66189;SDS011;52992;52.084;5.412;2023-01-28T01:15:09;9.23;;;5.73;;
66189;SDS011;52992;52.084;5.412;2023-01-28T01:17:37;9.10;;;6.27;;
66189;SDS011;52992;52.084;5.412;2023-01-28T01:20:07;8.80;;;6.03;;
66189;SDS011;52992;52.084;5.412;2023-01-28T01:22:37;9.23;;;5.80;;
66189;SDS011;52992;52.084;5.412;2023-01-28T01:25:05;9.20;;;6.03;;
66189;SDS011;52992;52.084;5.412;2023-01-28T01:27:32;9.90;;;6.43;;
66189;SDS011;52992;52.084;5.412;2023-01-28T01:29:59;10.83;;;6.60;;
66189;SDS011;52992;52.084;5.412;2023-01-28T01:32:30;12.90;;;6.97;;
66189;SDS011;52992;52.084;5.412;2023-01-28T01:34:58;11.20;;;6.87;;
66189;SDS011;52992;52.084;5.412;2023-01-28T01:37:24;10.73;;;6.13;;
66189;SDS011;52992;52.084;5.412;2023-01-28T01:39:51;11.93;;;6.73;;
66189;SDS011;52992;52.084;5.412;2023-01-28T01:42:19;10.27;;;6.23;;
66189;SDS011;52992;52.084;5.412;2023-01-28T01:45:07;11.10;;;7.30;;
66189;SDS011;52992;52.084;5.412;2023-01-28T01:47:43;10.30;;;5.97;;
66189;SDS011;52992;52.084;5.412;2023-01-28T01:53:13;10.37;;;6.47;;
66189;SDS011;52992;52.084;5.412;2023-01-28T01:55:42;11.77;;;6.70;;
66189;SDS011;52992;52.084;5.412;2023-01-28T01:58:14;11.73;;;6.57;;
66189;SDS011;52992;52.084;5.412;2023-01-28T02:00:43;11.43;;;6.70;;
66189;SDS011;52992;52.084;5.412;2023-01-28T02:03:11;12.30;;;7.23;;
66189;SDS011;52992;52.084;5.412;2023-01-28T02:05:41;12.83;;;7.40;;
66189;SDS011;52992;52.084;5.412;2023-01-28T02:08:08;21.43;;;7.70;;
66189;SDS011;52992;52.084;5.412;2023-01-28T02:10:55;10.63;;;6.30;;
66189;SDS011;52992;52.084;5.412;2023-01-28T02:13:29;11.50;;;6.47;;
66189;SDS011;52992;52.084;5.412;2023-01-28T02:16:00;11.40;;;6.53;;
66189;SDS011;52992;52.084;5.412;2023-01-28T02:18:30;11.17;;;7.07;;
66189;SDS011;52992;52.084;5.412;2023-01-28T02:26:30;11.07;;;6.47;;
66189;SDS011;52992;52.084;5.412;2023-01-28T02:35:11;11.10;;;5.77;;
66189;SDS011;52992;52.084;5.412;2023-01-28T02:37:45;10.03;;;5.50;;
66189;SDS011;52992;52.084;5.412;2023-01-28T02:40:27;10.93;;;6.37;;
66189;SDS011;52992;52.084;5.412;2023-01-28T02:42:57;12.00;;;6.80;;
66189;SDS011;52992;52.084;5.412;2023-01-28T02:45:25;12.67;;;6.57;;
66189;SDS011;52992;52.084;5.412;2023-01-28T02:48:18;9.67;;;6.20;;
66189;SDS011;52992;52.084;5.412;2023-01-28T02:50:49;11.50;;;6.73;;
66189;SDS011;52992;52.084;5.412;2023-01-28T02:53:38;11.80;;;6.37;;
66189;SDS011;52992;52.084;5.412;2023-01-28T02:56:26;13.50;;;6.73;;
66189;SDS011;52992;52.084;5.412;2023-01-28T03:02:22;11.47;;;6.50;;
66189;SDS011;52992;52.084;5.412;2023-01-28T03:05:13;9.90;;;6.37;;
66189;SDS011;52992;52.084;5.412;2023-01-28T03:07:48;10.90;;;6.23;;
66189;SDS011;52992;52.084;5.412;2023-01-28T03:10:17;9.90;;;5.77;;
66189;SDS011;52992;52.084;5.412;2023-01-28T03:12:47;11.27;;;6.40;;
66189;SDS011;52992;52.084;5.412;2023-01-28T03:15:38;9.73;;;6.10;;
66189;SDS011;52992;52.084;5.412;2023-01-28T03:18:40;12.10;;;6.27;;
66189;SDS011;52992;52.084;5.412;2023-01-28T03:21:33;11.50;;;6.27;;
66189;SDS011;52992;52.084;5.412;2023-01-28T03:27:18;8.97;;;5.67;;
66189;SDS011;52992;52.084;5.412;2023-01-28T03:30:14;9.90;;;5.70;;
66189;SDS011;52992;52.084;5.412;2023-01-28T03:33:09;12.07;;;7.00;;
66189;SDS011;52992;52.084;5.412;2023-01-28T03:35:55;12.73;;;6.43;;
66189;SDS011;52992;52.084;5.412;2023-01-28T03:38:41;9.40;;;5.60;;
66189;SDS011;52992;52.084;5.412;2023-01-28T03:41:21;10.40;;;5.57;;
66189;SDS011;52992;52.084;5.412;2023-01-28T03:43:50;8.30;;;5.23;;
66189;SDS011;52992;52.084;5.412;2023-01-28T03:46:18;11.03;;;6.60;;
66189;SDS011;52992;52.084;5.412;2023-01-28T03:48:45;10.40;;;6.23;;
66189;SDS011;52992;52.084;5.412;2023-01-28T03:51:13;10.83;;;6.40;;
66189;SDS011;52992;52.084;5.412;2023-01-28T03:53:41;12.17;;;6.63;;
66189;SDS011;52992;52.084;5.412;2023-01-28T03:56:09;12.10;;;6.63;;
66189;SDS011;52992;52.084;5.412;2023-01-28T03:58:43;12.80;;;5.63;;
66189;SDS011;52992;52.084;5.412;2023-01-28T04:01:19;10.17;;;6.27;;
66189;SDS011;52992;52.084;5.412;2023-01-28T04:03:47;12.10;;;5.87;;
66189;SDS011;52992;52.084;5.412;2023-01-28T04:06:20;9.37;;;5.60;;
66189;SDS011;52992;52.084;5.412;2023-01-28T04:08:55;10.47;;;5.97;;
66189;SDS011;52992;52.084;5.412;2023-01-28T04:11:27;10.63;;;6.03;;
66189;SDS011;52992;52.084;5.412;2023-01-28T04:13:55;10.20;;;6.00;;
66189;SDS011;52992;52.084;5.412;2023-01-28T04:16:23;11.93;;;6.63;;
66189;SDS011;52992;52.084;5.412;2023-01-28T04:18:50;9.30;;;5.70;;
66189;SDS011;52992;52.084;5.412;2023-01-28T04:21:17;10.70;;;6.33;;
66189;SDS011;52992;52.084;5.412;2023-01-28T04:23:45;11.53;;;6.73;;
66189;SDS011;52992;52.084;5.412;2023-01-28T04:26:13;12.37;;;6.50;;
66189;SDS011;52992;52.084;5.412;2023-01-28T04:28:40;10.43;;;6.20;;
66189;SDS011;52992;52.084;5.412;2023-01-28T04:31:07;9.33;;;5.87;;
66189;SDS011;52992;52.084;5.412;2023-01-28T04:33:53;12.67;;;6.20;;
66189;SDS011;52992;52.084;5.412;2023-01-28T04:36:35;10.07;;;5.93;;
66189;SDS011;52992;52.084;5.412;2023-01-28T04:39:10;10.53;;;6.30;;
66189;SDS011;52992;52.084;5.412;2023-01-28T04:42:00;11.83;;;6.30;;
66189;SDS011;52992;52.084;5.412;2023-01-28T04:44:46;9.07;;;5.57;;
66189;SDS011;52992;52.084;5.412;2023-01-28T04:47:35;10.57;;;6.20;;
66189;SDS011;52992;52.084;5.412;2023-01-28T04:50:22;10.53;;;6.07;;
66189;SDS011;52992;52.084;5.412;2023-01-28T04:53:12;11.60;;;6.60;;
66189;SDS011;52992;52.084;5.412;2023-01-28T04:56:05;12.00;;;6.17;;
66189;SDS011;52992;52.084;5.412;2023-01-28T04:58:34;8.83;;;5.50;;
66189;SDS011;52992;52.084;5.412;2023-01-28T05:01:04;10.30;;;5.90;;
66189;SDS011;52992;52.084;5.412;2023-01-28T05:03:31;9.70;;;5.93;;
66189;SDS011;52992;52.084;5.412;2023-01-28T05:06:01;10.20;;;5.73;;
66189;SDS011;52992;52.084;5.412;2023-01-28T05:08:39;10.53;;;6.27;;
66189;SDS011;52992;52.084;5.412;2023-01-28T05:11:06;9.97;;;6.63;;
66189;SDS011;52992;52.084;5.412;2023-01-28T05:13:33;11.23;;;6.30;;
66189;SDS011;52992;52.084;5.412;2023-01-28T05:16:02;9.87;;;5.70;;
66189;SDS011;52992;52.084;5.412;2023-01-28T05:18:29;9.23;;;5.60;;
66189;SDS011;52992;52.084;5.412;2023-01-28T05:21:08;10.30;;;6.10;;
66189;SDS011;52992;52.084;5.412;2023-01-28T05:23:37;10.23;;;6.03;;
66189;SDS011;52992;52.084;5.412;2023-01-28T05:26:04;10.30;;;6.33;;
66189;SDS011;52992;52.084;5.412;2023-01-28T05:28:32;9.70;;;6.23;;
66189;SDS011;52992;52.084;5.412;2023-01-28T05:31:03;8.67;;;5.87;;
66189;SDS011;52992;52.084;5.412;2023-01-28T05:33:32;9.37;;;5.87;;
66189;SDS011;52992;52.084;5.412;2023-01-28T05:36:00;8.43;;;5.37;;
66189;SDS011;52992;52.084;5.412;2023-01-28T05:38:27;10.47;;;6.27;;
66189;SDS011;52992;52.084;5.412;2023-01-28T05:40:54;10.27;;;6.87;;
66189;SDS011;52992;52.084;5.412;2023-01-28T05:43:22;10.93;;;6.00;;
66189;SDS011;52992;52.084;5.412;2023-01-28T05:46:12;11.77;;;5.77;;
66189;SDS011;52992;52.084;5.412;2023-01-28T05:48:57;11.57;;;5.67;;
66189;SDS011;52992;52.084;5.412;2023-01-28T05:51:30;9.20;;;5.43;;
66189;SDS011;52992;52.084;5.412;2023-01-28T05:53:57;10.73;;;5.67;;
66189;SDS011;52992;52.084;5.412;2023-01-28T05:56:24;9.30;;;6.17;;
66189;SDS011;52992;52.084;5.412;2023-01-28T05:58:51;11.20;;;6.70;;
66189;SDS011;52992;52.084;5.412;2023-01-28T06:01:18;9.77;;;5.83;;
66189;SDS011;52992;52.084;5.412;2023-01-28T06:03:50;9.03;;;5.13;;
66189;SDS011;52992;52.084;5.412;2023-01-28T06:06:17;11.03;;;6.23;;
66189;SDS011;52992;52.084;5.412;2023-01-28T06:08:45;10.97;;;5.77;;
66189;SDS011;52992;52.084;5.412;2023-01-28T06:11:18;9.33;;;5.60;;
66189;SDS011;52992;52.084;5.412;2023-01-28T06:13:46;10.00;;;5.87;;
66189;SDS011;52992;52.084;5.412;2023-01-28T06:16:32;9.40;;;5.83;;
66189;SDS011;52992;52.084;5.412;2023-01-28T06:19:28;11.40;;;6.13;;
66189;SDS011;52992;52.084;5.412;2023-01-28T06:21:55;10.27;;;6.03;;
66189;SDS011;52992;52.084;5.412;2023-01-28T06:24:21;9.60;;;5.63;;
66189;SDS011;52992;52.084;5.412;2023-01-28T06:26:48;11.37;;;5.80;;
66189;SDS011;52992;52.084;5.412;2023-01-28T06:29:16;10.03;;;4.87;;
66189;SDS011;52992;52.084;5.412;2023-01-28T06:31:43;9.80;;;5.70;;
66189;SDS011;52992;52.084;5.412;2023-01-28T06:34:10;9.50;;;5.50;;
66189;SDS011;52992;52.084;5.412;2023-01-28T06:36:36;11.23;;;6.13;;
66189;SDS011;52992;52.084;5.412;2023-01-28T06:39:03;11.13;;;5.93;;
66189;SDS011;52992;52.084;5.412;2023-01-28T06:41:30;9.63;;;6.00;;
66189;SDS011;52992;52.084;5.412;2023-01-28T06:43:57;10.70;;;6.07;;
66189;SDS011;52992;52.084;5.412;2023-01-28T06:46:24;8.80;;;5.70;;
66189;SDS011;52992;52.084;5.412;2023-01-28T06:48:51;11.13;;;5.87;;
66189;SDS011;52992;52.084;5.412;2023-01-28T06:51:18;10.77;;;6.10;;
66189;SDS011;52992;52.084;5.412;2023-01-28T06:53:44;12.03;;;5.93;;
66189;SDS011;52992;52.084;5.412;2023-01-28T06:56:11;9.57;;;5.57;;
66189;SDS011;52992;52.084;5.412;2023-01-28T06:58:38;12.63;;;5.23;;
66189;SDS011;52992;52.084;5.412;2023-01-28T07:01:05;11.47;;;6.43;;
66189;SDS011;52992;52.084;5.412;2023-01-28T07:03:32;10.63;;;5.50;;
66189;SDS011;52992;52.084;5.412;2023-01-28T07:05:59;9.17;;;5.40;;
66189;SDS011;52992;52.084;5.412;2023-01-28T07:08:26;9.30;;;5.93;;
66189;SDS011;52992;52.084;5.412;2023-01-28T07:10:53;11.53;;;5.97;;
66189;SDS011;52992;52.084;5.412;2023-01-28T07:13:20;12.17;;;7.10;;
66189;SDS011;52992;52.084;5.412;2023-01-28T07:15:46;10.10;;;5.67;;
66189;SDS011;52992;52.084;5.412;2023-01-28T07:18:15;11.10;;;5.80;;
66189;SDS011;52992;52.084;5.412;2023-01-28T07:20:42;11.23;;;6.20;;
66189;SDS011;52992;52.084;5.412;2023-01-28T07:23:09;12.20;;;6.03;;
66189;SDS011;52992;52.084;5.412;2023-01-28T07:25:35;9.97;;;6.10;;
66189;SDS011;52992;52.084;5.412;2023-01-28T07:28:02;11.30;;;6.40;;
66189;SDS011;52992;52.084;5.412;2023-01-28T07:30:29;11.47;;;6.60;;
66189;SDS011;52992;52.084;5.412;2023-01-28T07:32:57;13.03;;;6.30;;
66189;SDS011;52992;52.084;5.412;2023-01-28T07:35:24;11.53;;;6.93;;
66189;SDS011;52992;52.084;5.412;2023-01-28T07:37:56;11.73;;;6.43;;
66189;SDS011;52992;52.084;5.412;2023-01-28T07:40:25;11.20;;;6.57;;
66189;SDS011;52992;52.084;5.412;2023-01-28T07:42:52;14.23;;;7.00;;
66189;SDS011;52992;52.084;5.412;2023-01-28T07:45:22;12.40;;;6.30;;
66189;SDS011;52992;52.084;5.412;2023-01-28T07:47:56;12.77;;;6.30;;
66189;SDS011;52992;52.084;5.412;2023-01-28T07:50:28;12.50;;;6.33;;
66189;SDS011;52992;52.084;5.412;2023-01-28T07:52:56;13.00;;;7.10;;
66189;SDS011;52992;52.084;5.412;2023-01-28T07:55:24;12.47;;;6.30;;
66189;SDS011;52992;52.084;5.412;2023-01-28T07:57:55;14.23;;;6.40;;
66189;SDS011;52992;52.084;5.412;2023-01-28T08:00:25;12.33;;;6.93;;
66189;SDS011;52992;52.084;5.412;2023-01-28T08:02:57;12.53;;;6.73;;
66189;SDS011;52992;52.084;5.412;2023-01-28T08:05:25;13.40;;;6.80;;
66189;SDS011;52992;52.084;5.412;2023-01-28T08:07:59;12.00;;;6.60;;
66189;SDS011;52992;52.084;5.412;2023-01-28T08:10:25;15.30;;;7.87;;
66189;SDS011;52992;52.084;5.412;2023-01-28T08:12:56;12.50;;;7.00;;
66189;SDS011;52992;52.084;5.412;2023-01-28T08:15:24;12.37;;;6.87;;
66189;SDS011;52992;52.084;5.412;2023-01-28T08:17:58;13.03;;;6.60;;
66189;SDS011;52992;52.084;5.412;2023-01-28T08:20:26;12.10;;;6.30;;
66189;SDS011;52992;52.084;5.412;2023-01-28T08:23:04;12.07;;;6.30;;
66189;SDS011;52992;52.084;5.412;2023-01-28T08:25:36;12.60;;;6.17;;
66189;SDS011;52992;52.084;5.412;2023-01-28T08:28:03;11.63;;;6.60;;
66189;SDS011;52992;52.084;5.412;2023-01-28T08:30:31;11.90;;;6.50;;
66189;SDS011;52992;52.084;5.412;2023-01-28T08:32:59;13.63;;;7.53;;
66189;SDS011;52992;52.084;5.412;2023-01-28T08:35:26;12.70;;;6.63;;
66189;SDS011;52992;52.084;5.412;2023-01-28T08:37:54;13.50;;;7.03;;
66189;SDS011;52992;52.084;5.412;2023-01-28T08:40:21;12.73;;;7.13;;
66189;SDS011;52992;52.084;5.412;2023-01-28T08:42:48;11.87;;;6.83;;
66189;SDS011;52992;52.084;5.412;2023-01-28T08:45:16;14.80;;;7.90;;
66189;SDS011;52992;52.084;5.412;2023-01-28T08:47:47;15.50;;;7.93;;
66189;SDS011;52992;52.084;5.412;2023-01-28T08:50:15;15.20;;;7.60;;
66189;SDS011;52992;52.084;5.412;2023-01-28T08:52:44;14.83;;;7.77;;
66189;SDS011;52992;52.084;5.412;2023-01-28T08:55:12;13.90;;;7.37;;
66189;SDS011;52992;52.084;5.412;2023-01-28T08:57:39;14.03;;;7.07;;
66189;SDS011;52992;52.084;5.412;2023-01-28T09:00:06;12.30;;;7.27;;
66189;SDS011;52992;52.084;5.412;2023-01-28T09:02:36;13.37;;;6.90;;
66189;SDS011;52992;52.084;5.412;2023-01-28T09:05:03;12.80;;;7.30;;
66189;SDS011;52992;52.084;5.412;2023-01-28T09:07:31;12.73;;;7.07;;
66189;SDS011;52992;52.084;5.412;2023-01-28T09:10:00;13.43;;;7.43;;
66189;SDS011;52992;52.084;5.412;2023-01-28T09:12:27;13.27;;;7.47;;
66189;SDS011;52992;52.084;5.412;2023-01-28T09:14:54;13.67;;;6.37;;
66189;SDS011;52992;52.084;5.412;2023-01-28T09:17:21;13.33;;;7.17;;
66189;SDS011;52992;52.084;5.412;2023-01-28T09:19:48;14.37;;;6.97;;
66189;SDS011;52992;52.084;5.412;2023-01-28T09:22:15;13.70;;;7.47;;
66189;SDS011;52992;52.084;5.412;2023-01-28T09:24:42;12.70;;;7.17;;
66189;SDS011;52992;52.084;5.412;2023-01-28T09:27:09;13.57;;;6.93;;
66189;SDS011;52992;52.084;5.412;2023-01-28T09:29:36;12.67;;;6.80;;
66189;SDS011;52992;52.084;5.412;2023-01-28T09:32:04;12.03;;;6.43;;
66189;SDS011;52992;52.084;5.412;2023-01-28T09:34:32;12.10;;;7.10;;
66189;SDS011;52992;52.084;5.412;2023-01-28T09:36:59;10.93;;;6.40;;
66189;SDS011;52992;52.084;5.412;2023-01-28T09:39:26;13.93;;;6.77;;
66189;SDS011;52992;52.084;5.412;2023-01-28T09:47:27;11.83;;;6.60;;
66189;SDS011;52992;52.084;5.412;2023-01-28T09:50:16;11.67;;;6.50;;
66189;SDS011;52992;52.084;5.412;2023-01-28T09:52:48;12.30;;;6.43;;
66189;SDS011;52992;52.084;5.412;2023-01-28T09:55:21;10.67;;;6.20;;
66189;SDS011;52992;52.084;5.412;2023-01-28T09:57:55;12.60;;;6.93;;
66189;SDS011;52992;52.084;5.412;2023-01-28T10:00:23;9.20;;;5.73;;
66189;SDS011;52992;52.084;5.412;2023-01-28T10:03:20;12.10;;;6.47;;
66189;SDS011;52992;52.084;5.412;2023-01-28T10:19:59;10.30;;;5.70;;
66189;SDS011;52992;52.084;5.412;2023-01-28T10:22:57;12.03;;;6.30;;
66189;SDS011;52992;52.084;5.412;2023-01-28T10:25:21;8.87;;;5.13;;
66189;SDS011;52992;52.084;5.412;2023-01-28T10:27:53;10.53;;;5.57;;
66189;SDS011;52992;52.084;5.412;2023-01-28T10:30:21;10.87;;;5.70;;
66189;SDS011;52992;52.084;5.412;2023-01-28T10:32:58;12.17;;;5.90;;
66189;SDS011;52992;52.084;5.412;2023-01-28T10:35:30;7.73;;;4.83;;
66189;SDS011;52992;52.084;5.412;2023-01-28T10:38:03;11.90;;;5.83;;
66189;SDS011;52992;52.084;5.412;2023-01-28T10:40:34;15.10;;;7.57;;
66189;SDS011;52992;52.084;5.412;2023-01-28T10:43:01;11.50;;;5.80;;
66189;SDS011;52992;52.084;5.412;2023-01-28T10:45:33;11.90;;;6.27;;
66189;SDS011;52992;52.084;5.412;2023-01-28T10:48:25;12.03;;;6.33;;
66189;SDS011;52992;52.084;5.412;2023-01-28T10:50:58;9.83;;;5.37;;
66189;SDS011;52992;52.084;5.412;2023-01-28T10:53:35;8.07;;;5.10;;
66189;SDS011;52992;52.084;5.412;2023-01-28T10:56:10;7.60;;;4.27;;
66189;SDS011;52992;52.084;5.412;2023-01-28T10:58:46;8.70;;;4.90;;
66189;SDS011;52992;52.084;5.412;2023-01-28T11:01:20;10.33;;;4.93;;
66189;SDS011;52992;52.084;5.412;2023-01-28T11:03:54;9.13;;;5.00;;
66189;SDS011;52992;52.084;5.412;2023-01-28T11:06:24;8.23;;;5.23;;
66189;SDS011;52992;52.084;5.412;2023-01-28T11:08:53;12.53;;;5.07;;
66189;SDS011;52992;52.084;5.412;2023-01-28T11:11:24;8.33;;;4.80;;
66189;SDS011;52992;52.084;5.412;2023-01-28T11:13:52;6.80;;;4.63;;
66189;SDS011;52992;52.084;5.412;2023-01-28T11:16:20;6.10;;;4.20;;
66189;SDS011;52992;52.084;5.412;2023-01-28T11:18:59;5.03;;;3.33;;
66189;SDS011;52992;52.084;5.412;2023-01-28T11:21:30;6.50;;;3.57;;
66189;SDS011;52992;52.084;5.412;2023-01-28T11:23:59;6.40;;;3.50;;
66189;SDS011;52992;52.084;5.412;2023-01-28T11:26:31;7.40;;;3.80;;
66189;SDS011;52992;52.084;5.412;2023-01-28T11:29:01;9.30;;;4.20;;
66189;SDS011;52992;52.084;5.412;2023-01-28T11:31:29;9.97;;;4.33;;
66189;SDS011;52992;52.084;5.412;2023-01-28T11:34:10;8.00;;;4.10;;
66189;SDS011;52992;52.084;5.412;2023-01-28T11:36:50;7.73;;;4.33;;
66189;SDS011;52992;52.084;5.412;2023-01-28T11:39:22;7.00;;;4.23;;
66189;SDS011;52992;52.084;5.412;2023-01-28T11:41:53;7.57;;;3.80;;
66189;SDS011;52992;52.084;5.412;2023-01-28T11:44:29;7.87;;;4.00;;
66189;SDS011;52992;52.084;5.412;2023-01-28T11:49:35;7.53;;;4.00;;
66189;SDS011;52992;52.084;5.412;2023-01-28T11:52:54;5.97;;;3.50;;
66189;SDS011;52992;52.084;5.412;2023-01-28T11:58:20;10.37;;;4.50;;
66189;SDS011;52992;52.084;5.412;2023-01-28T12:01:09;8.13;;;4.47;;
66189;SDS011;52992;52.084;5.412;2023-01-28T12:04:17;6.77;;;4.30;;
66189;SDS011;52992;52.084;5.412;2023-01-28T12:07:16;6.43;;;4.10;;
66189;SDS011;52992;52.084;5.412;2023-01-28T12:09:56;5.47;;;3.57;;
66189;SDS011;52992;52.084;5.412;2023-01-28T12:13:33;7.30;;;3.73;;
66189;SDS011;52992;52.084;5.412;2023-01-28T12:15:51;7.90;;;3.63;;
66189;SDS011;52992;52.084;5.412;2023-01-28T12:21:40;7.20;;;4.03;;
66189;SDS011;52992;52.084;5.412;2023-01-28T12:24:19;6.70;;;3.97;;
66189;SDS011;52992;52.084;5.412;2023-01-28T12:29:40;7.97;;;4.13;;
66189;SDS011;52992;52.084;5.412;2023-01-28T12:32:20;6.67;;;3.87;;
66189;SDS011;52992;52.084;5.412;2023-01-28T12:41:15;6.87;;;3.40;;
66189;SDS011;52992;52.084;5.412;2023-01-28T12:43:48;9.77;;;3.90;;
66189;SDS011;52992;52.084;5.412;2023-01-28T12:49:11;7.60;;;3.77;;
66189;SDS011;52992;52.084;5.412;2023-01-28T12:51:57;7.10;;;3.60;;
66189;SDS011;52992;52.084;5.412;2023-01-28T12:54:26;11.17;;;4.07;;
66189;SDS011;52992;52.084;5.412;2023-01-28T12:57:07;8.63;;;4.10;;
66189;SDS011;52992;52.084;5.412;2023-01-28T12:59:41;6.67;;;4.27;;
66189;SDS011;52992;52.084;5.412;2023-01-28T13:04:41;6.50;;;3.93;;
66189;SDS011;52992;52.084;5.412;2023-01-28T13:07:20;6.20;;;3.83;;
66189;SDS011;52992;52.084;5.412;2023-01-28T13:09:57;9.73;;;3.63;;
66189;SDS011;52992;52.084;5.412;2023-01-28T13:12:30;8.40;;;4.60;;
66189;SDS011;52992;52.084;5.412;2023-01-28T13:14:58;10.53;;;4.33;;
66189;SDS011;52992;52.084;5.412;2023-01-28T13:17:27;6.63;;;4.13;;
66189;SDS011;52992;52.084;5.412;2023-01-28T13:19:56;11.27;;;4.10;;
66189;SDS011;52992;52.084;5.412;2023-01-28T13:22:31;10.97;;;4.90;;
66189;SDS011;52992;52.084;5.412;2023-01-28T13:25:18;8.63;;;4.87;;
66189;SDS011;52992;52.084;5.412;2023-01-28T13:28:51;5.93;;;3.50;;
66189;SDS011;52992;52.084;5.412;2023-01-28T13:30:59;7.40;;;4.47;;
66189;SDS011;52992;52.084;5.412;2023-01-28T13:39:01;12.50;;;5.23;;
66189;SDS011;52992;52.084;5.412;2023-01-28T13:41:44;8.83;;;4.00;;
66189;SDS011;52992;52.084;5.412;2023-01-28T13:46:51;7.20;;;3.93;;
66189;SDS011;52992;52.084;5.412;2023-01-28T13:49:21;4.90;;;3.60;;
66189;SDS011;52992;52.084;5.412;2023-01-28T13:51:57;6.53;;;3.63;;
66189;SDS011;52992;52.084;5.412;2023-01-28T13:54:29;6.67;;;3.67;;
66189;SDS011;52992;52.084;5.412;2023-01-28T13:57:05;6.97;;;3.90;;
66189;SDS011;52992;52.084;5.412;2023-01-28T13:59:38;6.40;;;3.97;;
66189;SDS011;52992;52.084;5.412;2023-01-28T14:02:35;8.17;;;3.80;;
66189;SDS011;52992;52.084;5.412;2023-01-28T14:08:23;7.97;;;3.90;;
66189;SDS011;52992;52.084;5.412;2023-01-28T14:13:45;6.77;;;3.87;;
66189;SDS011;52992;52.084;5.412;2023-01-28T14:18:49;7.63;;;4.23;;
66189;SDS011;52992;52.084;5.412;2023-01-28T14:21:18;5.93;;;3.90;;
66189;SDS011;52992;52.084;5.412;2023-01-28T14:23:48;6.63;;;3.97;;
66189;SDS011;52992;52.084;5.412;2023-01-28T14:26:22;10.77;;;4.00;;
66189;SDS011;52992;52.084;5.412;2023-01-28T14:31:40;11.60;;;4.50;;
66189;SDS011;52992;52.084;5.412;2023-01-28T14:37:01;6.03;;;3.67;;
66189;SDS011;52992;52.084;5.412;2023-01-28T14:39:32;7.03;;;3.43;;
66189;SDS011;52992;52.084;5.412;2023-01-28T14:42:22;6.20;;;3.93;;
66189;SDS011;52992;52.084;5.412;2023-01-28T14:56:33;7.53;;;3.90;;
66189;SDS011;52992;52.084;5.412;2023-01-28T15:01:44;8.80;;;4.30;;
66189;SDS011;52992;52.084;5.412;2023-01-28T15:04:25;8.67;;;3.90;;
66189;SDS011;52992;52.084;5.412;2023-01-28T15:06:54;10.87;;;4.20;;
66189;SDS011;52992;52.084;5.412;2023-01-28T15:09:22;9.67;;;5.17;;
66189;SDS011;52992;52.084;5.412;2023-01-28T15:11:51;8.57;;;4.37;;
66189;SDS011;52992;52.084;5.412;2023-01-28T15:14:27;6.70;;;3.90;;
66189;SDS011;52992;52.084;5.412;2023-01-28T15:16:56;8.07;;;5.20;;
66189;SDS011;52992;52.084;5.412;2023-01-28T15:19:32;7.03;;;4.63;;
66189;SDS011;52992;52.084;5.412;2023-01-28T15:22:04;7.53;;;4.83;;
66189;SDS011;52992;52.084;5.412;2023-01-28T15:24:33;6.80;;;3.70;;
66189;SDS011;52992;52.084;5.412;2023-01-28T15:27:01;9.03;;;4.60;;
66189;SDS011;52992;52.084;5.412;2023-01-28T15:32:00;8.27;;;4.90;;
66189;SDS011;52992;52.084;5.412;2023-01-28T15:34:27;8.30;;;4.67;;
66189;SDS011;52992;52.084;5.412;2023-01-28T15:36:57;11.47;;;6.33;;
66189;SDS011;52992;52.084;5.412;2023-01-28T15:39:26;11.33;;;5.67;;
66189;SDS011;52992;52.084;5.412;2023-01-28T15:42:01;12.67;;;6.90;;
66189;SDS011;52992;52.084;5.412;2023-01-28T15:44:34;16.77;;;7.10;;
66189;SDS011;52992;52.084;5.412;2023-01-28T15:47:12;10.53;;;5.90;;
66189;SDS011;52992;52.084;5.412;2023-01-28T15:49:46;9.83;;;5.77;;
66189;SDS011;52992;52.084;5.412;2023-01-28T15:52:16;17.13;;;9.40;;
66189;SDS011;52992;52.084;5.412;2023-01-28T15:54:43;17.40;;;10.23;;
66189;SDS011;52992;52.084;5.412;2023-01-28T15:57:17;14.90;;;9.47;;
66189;SDS011;52992;52.084;5.412;2023-01-28T16:02:42;9.20;;;5.40;;
66189;SDS011;52992;52.084;5.412;2023-01-28T16:05:27;11.67;;;6.03;;
66189;SDS011;52992;52.084;5.412;2023-01-28T16:08:06;10.00;;;6.00;;
66189;SDS011;52992;52.084;5.412;2023-01-28T16:10:35;8.30;;;5.00;;
66189;SDS011;52992;52.084;5.412;2023-01-28T16:15:35;10.43;;;5.33;;
66189;SDS011;52992;52.084;5.412;2023-01-28T16:18:04;10.73;;;5.70;;
66189;SDS011;52992;52.084;5.412;2023-01-28T16:20:32;9.53;;;5.20;;
66189;SDS011;52992;52.084;5.412;2023-01-28T16:22:59;9.30;;;5.30;;
66189;SDS011;52992;52.084;5.412;2023-01-28T16:25:29;15.03;;;5.97;;
66189;SDS011;52992;52.084;5.412;2023-01-28T16:27:58;9.80;;;5.60;;
66189;SDS011;52992;52.084;5.412;2023-01-28T16:30:28;10.97;;;5.90;;
66189;SDS011;52992;52.084;5.412;2023-01-28T16:32:55;10.27;;;5.80;;
66189;SDS011;52992;52.084;5.412;2023-01-28T16:35:26;11.33;;;6.10;;
66189;SDS011;52992;52.084;5.412;2023-01-28T16:38:12;11.80;;;6.60;;
66189;SDS011;52992;52.084;5.412;2023-01-28T16:40:43;10.97;;;6.73;;
66189;SDS011;52992;52.084;5.412;2023-01-28T16:43:11;22.23;;;9.23;;
66189;SDS011;52992;52.084;5.412;2023-01-28T16:45:40;17.47;;;7.50;;
66189;SDS011;52992;52.084;5.412;2023-01-28T16:48:07;11.10;;;6.47;;
66189;SDS011;52992;52.084;5.412;2023-01-28T16:50:35;11.33;;;6.33;;
66189;SDS011;52992;52.084;5.412;2023-01-28T16:53:07;10.67;;;5.93;;
66189;SDS011;52992;52.084;5.412;2023-01-28T16:55:48;16.90;;;5.90;;
66189;SDS011;52992;52.084;5.412;2023-01-28T16:58:18;14.77;;;6.53;;
66189;SDS011;52992;52.084;5.412;2023-01-28T17:00:48;11.50;;;5.40;;